Cancun, Mexico

4:35 PM EST on February 11, 2016 (GMT -0500)
Cancun | | Change Station
CLOSE
Current Station
Personal Weather Station
Location: Cancun, QUINTANA ROO
Elevation: 40 ft
Nearby Weather Stations

Elev 40 ft 21.15 °N, 86.84 °W | Updated 3 minutes ago

Scattered Clouds
Scattered Clouds
74.3 °F
Feels Like 76 °F
N
0.0
Wind Variable Wind from NE
Gusts 13.0 mph

Today
High -- | Low -- °F
--% Chance of Precip.
Yesterday
High -- | Low -- °F
Precip. -- in
Pressure 30.20 in
Visibility 8.0 miles
Clouds Scattered Clouds 1800 ft
Heat Index 76 °F
Dew Point 63 °F
Humidity 68%
Rainfall 0.00 in
Snow Depth Not available.
7:20 AM 6:43 PM
Waxing Crescent, 14% visible
METAR MMCZ 112045Z 07015KT 8SM SCT018TCU 23/18 A3017 RMK SLP225 57004 974 8/200 SC
Pressure 30.20 in
Visibility 8.0 miles
Clouds Scattered Clouds 1800 ft
Heat Index 76 °F
Dew Point 63 °F
Humidity 68%
Rainfall 0.00 in
Snow Depth Not available.
7:20 AM 6:43 PM
Waxing Crescent, 14% visible
METAR MMCZ 112045Z 07015KT 8SM SCT018TCU 23/18 A3017 RMK SLP225 57004 974 8/200 SC

10-Day Weather Forecast

No radar image for this location.
×

Almanac

Astronomy

Feb. 11, 2016 Rise Set
Actual Time
Civil Twilight
Nautical Twilight
Astronomical Twilight
Moon
Length of Visible Light
Length of Day
Tomorrow will be .
, % of the Moon is Illuminated

Today's Extremes

Country Highs Country Lows

Community

WunderPhotos

Upload Photos

1,892,164 photos uploaded!

WunderBlog® & News

Nearby

Air Quality

  Air Quality AQ Index Pollutant
Not available.

Snow Depth

Station Depth Elevation

Earthquake Activity

City Distance Mag. Time & Date
Minimum magnitude displayed is 2.5.

Coastal Water Temperatures

Place Temperature

Stations

Nearby Weather Stations

Station Location Temp. Windchill Dew Point Humidity Wind Precip. Elev Updated Type